createdAt,value
2018-03-29T00:00:20.879Z,90.00
2018-03-29T00:02:48.411Z,90.10
2018-03-29T00:05:15.931Z,90.20
2018-03-29T00:07:43.476Z,90.30
2018-03-29T00:10:11.016Z,90.20
2018-03-29T00:12:38.567Z,90.30
2018-03-29T00:15:06.085Z,90.40
2018-03-29T00:17:34.388Z,90.10
2018-03-29T00:20:01.905Z,90.10
2018-03-29T00:22:29.461Z,90.30
2018-03-29T00:24:56.989Z,90.30
2018-03-29T00:27:24.510Z,90.20
2018-03-29T00:29:52.810Z,90.30
2018-03-29T00:32:20.330Z,90.30
2018-03-29T00:34:48.652Z,90.40
2018-03-29T00:37:16.180Z,90.40
2018-03-29T00:39:44.496Z,90.70
2018-03-29T00:42:12.023Z,90.60
2018-03-29T00:44:39.580Z,90.70
2018-03-29T00:47:07.099Z,91.10
2018-03-29T00:49:34.636Z,91.30
2018-03-29T00:52:02.203Z,91.50
2018-03-29T00:54:29.719Z,91.40
2018-03-29T00:56:57.285Z,91.60
2018-03-29T00:59:24.820Z,91.50
2018-03-29T01:01:53.119Z,91.90
2018-03-29T01:04:20.638Z,91.80
2018-03-29T01:06:48.184Z,92.00
2018-03-29T01:09:15.693Z,92.50
2018-03-29T01:11:43.243Z,92.70
2018-03-29T01:14:11.528Z,93.10
2018-03-29T01:16:39.061Z,93.10
2018-03-29T01:19:07.357Z,93.30
2018-03-29T01:21:35.643Z,93.30
2018-03-29T01:24:03.167Z,93.30
2018-03-29T01:26:31.452Z,93.30
2018-03-29T01:28:59.758Z,93.00
2018-03-29T01:31:27.296Z,93.00
2018-03-29T01:33:55.612Z,92.20
2018-03-29T01:36:23.144Z,92.20
2018-03-29T01:38:50.657Z,92.00
2018-03-29T01:41:18.203Z,91.40
2018-03-29T01:43:45.711Z,91.00
2018-03-29T01:46:14.019Z,91.20
2018-03-29T01:48:41.539Z,91.20
2018-03-29T01:51:09.838Z,91.70
2018-03-29T01:53:37.350Z,91.70
2018-03-29T01:56:04.901Z,91.80
2018-03-29T01:58:32.410Z,92.30
2018-03-29T02:01:00.018Z,92.50
2018-03-29T02:03:27.531Z,92.50
2018-03-29T02:05:55.040Z,92.60
2018-03-29T02:08:22.574Z,92.50
2018-03-29T02:10:50.094Z,92.50
2018-03-29T02:13:18.364Z,93.00
2018-03-29T02:15:46.675Z,92.50
2018-03-29T02:18:14.185Z,92.50
2018-03-29T02:20:41.721Z,92.80
2018-03-29T02:23:09.276Z,92.70
2018-03-29T02:25:36.790Z,92.10
2018-03-29T02:28:05.080Z,91.80
2018-03-29T02:30:32.649Z,91.80
2018-03-29T02:33:00.165Z,91.70
2018-03-29T02:35:28.461Z,91.40
2018-03-29T02:37:56.027Z,91.40
2018-03-29T02:40:23.561Z,91.40
2018-03-29T02:42:51.847Z,91.60
2018-03-29T02:45:20.165Z,91.80
2018-03-29T02:47:47.689Z,91.80
2018-03-29T02:50:15.966Z,92.10
2018-03-29T02:52:44.289Z,92.10
2018-03-29T02:55:11.802Z,92.10
2018-03-29T02:57:40.086Z,92.60
2018-03-29T03:00:07.640Z,92.60
2018-03-29T03:02:35.157Z,92.30
2018-03-29T03:05:02.692Z,92.30
2018-03-29T03:07:30.245Z,92.60
2018-03-29T03:09:57.780Z,92.90
2018-03-29T03:12:25.297Z,93.10
2018-03-29T03:14:52.861Z,93.10
2018-03-29T03:17:20.384Z,93.20
2018-03-29T03:19:47.902Z,93.20
2018-03-29T03:22:16.223Z,93.10
2018-03-29T03:24:43.746Z,93.10
2018-03-29T03:27:12.032Z,93.30
2018-03-29T03:29:39.576Z,93.30
2018-03-29T03:32:07.876Z,93.80
2018-03-29T03:34:35.408Z,93.80
2018-03-29T03:37:03.739Z,94.10
2018-03-29T03:39:31.260Z,94.10
2018-03-29T03:41:58.786Z,94.10
2018-03-29T03:44:26.322Z,93.80
2018-03-29T03:46:53.834Z,93.80
2018-03-29T03:49:21.349Z,94.00
2018-03-29T03:51:48.904Z,94.00
2018-03-29T03:54:16.421Z,93.90
2018-03-29T03:56:43.936Z,93.60
2018-03-29T03:59:11.478Z,93.30
2018-03-29T04:01:38.982Z,93.30
2018-03-29T04:04:07.253Z,93.00
2018-03-29T04:06:34.820Z,93.00
2018-03-29T04:09:02.364Z,93.50
2018-03-29T04:11:30.639Z,94.30
2018-03-29T04:13:58.977Z,94.50
2018-03-29T04:16:26.520Z,94.50
2018-03-29T04:18:54.053Z,94.70
2018-03-29T04:21:21.619Z,95.10
2018-03-29T04:23:49.123Z,95.40
2018-03-29T04:26:16.631Z,95.60
2018-03-29T04:28:44.200Z,95.70
2018-03-29T04:31:11.738Z,95.80
2018-03-29T04:33:40.036Z,95.90
2018-03-29T04:36:07.572Z,96.20
2018-03-29T04:38:35.879Z,95.90
2018-03-29T04:41:03.402Z,95.80
2018-03-29T04:43:31.707Z,95.60
2018-03-29T04:45:59.245Z,95.60
2018-03-29T04:48:27.530Z,95.50
2018-03-29T04:50:55.835Z,95.60
2018-03-29T04:53:23.362Z,95.60
2018-03-29T04:55:51.661Z,95.50
2018-03-29T04:58:19.225Z,95.50
2018-03-29T05:00:46.739Z,95.40
2018-03-29T05:03:15.041Z,95.20
2018-03-29T05:05:42.568Z,95.20
2018-03-29T05:08:10.097Z,95.00
2018-03-29T05:10:37.615Z,94.60
2018-03-29T05:13:05.182Z,94.20
2018-03-29T05:15:32.717Z,93.80
2018-03-29T05:18:01.025Z,93.60
2018-03-29T05:20:28.573Z,93.50
2018-03-29T05:22:56.085Z,93.70
2018-03-29T05:25:23.598Z,92.70
2018-03-29T05:27:54.116Z,92.40
2018-03-29T05:30:21.630Z,92.50
2018-03-29T05:32:49.136Z,92.80
2018-03-29T05:35:16.682Z,92.60
2018-03-29T05:37:44.965Z,92.80
2018-03-29T05:40:13.234Z,93.00
2018-03-29T05:42:41.557Z,92.80
2018-03-29T05:45:09.076Z,92.80
2018-03-29T05:47:37.363Z,92.60
2018-03-29T05:50:04.922Z,92.50
2018-03-29T05:52:32.439Z,92.60
2018-03-29T05:54:59.968Z,93.00
2018-03-29T05:57:27.518Z,93.00
2018-03-29T05:59:55.029Z,93.30
2018-03-29T06:02:23.317Z,93.60
2018-03-29T06:04:51.646Z,94.10
2018-03-29T06:07:19.156Z,94.10
2018-03-29T06:09:47.441Z,95.10
2018-03-29T06:12:14.984Z,95.10
2018-03-29T06:14:45.254Z,95.70
2018-03-29T06:17:18.560Z,95.70
2018-03-29T06:19:46.073Z,96.00
2018-03-29T06:22:13.586Z,96.30
2018-03-29T06:24:41.121Z,96.10
2018-03-29T06:27:08.632Z,96.40
2018-03-29T06:29:36.908Z,95.90
2018-03-29T06:32:05.241Z,96.00
2018-03-29T06:34:32.784Z,96.00
2018-03-29T06:37:00.297Z,95.90
2018-03-29T06:39:27.862Z,95.90
2018-03-29T06:41:56.155Z,95.10
2018-03-29T06:44:23.673Z,95.30
2018-03-29T06:46:51.208Z,94.70
2018-03-29T06:49:18.753Z,94.40
2018-03-29T06:51:46.286Z,93.90
2018-03-29T06:54:14.599Z,93.90
2018-03-29T06:56:42.130Z,93.90
2018-03-29T06:59:09.648Z,93.90
2018-03-29T07:01:37.184Z,94.30
2018-03-29T07:04:04.724Z,95.10
2018-03-29T07:06:32.237Z,95.30
2018-03-29T07:08:59.804Z,95.10
2018-03-29T07:11:28.095Z,94.30
2018-03-29T07:13:56.371Z,94.40
2018-03-29T07:16:24.670Z,94.50
2018-03-29T07:18:52.223Z,94.50
2018-03-29T07:21:19.740Z,94.50
2018-03-29T07:23:47.299Z,94.50
2018-03-29T07:26:14.831Z,94.30
2018-03-29T07:28:42.354Z,94.00
2018-03-29T07:31:10.105Z,94.00
2018-03-29T07:33:38.396Z,94.00
2018-03-29T07:36:05.996Z,94.00
2018-03-29T07:38:34.336Z,93.60
2018-03-29T07:41:01.842Z,93.60
2018-03-29T07:43:29.373Z,93.00
2018-03-29T07:45:56.941Z,93.60
2018-03-29T07:48:24.454Z,94.90
2018-03-29T07:50:52.730Z,96.20
2018-03-29T07:53:21.040Z,96.40
2018-03-29T07:55:49.549Z,96.30
2018-03-29T07:58:17.090Z,96.30
2018-03-29T08:00:45.624Z,96.40
2018-03-29T08:03:13.908Z,96.30
2018-03-29T08:05:41.475Z,96.30
2018-03-29T08:08:09.024Z,96.80
2018-03-29T08:10:37.294Z,95.90
2018-03-29T08:13:05.827Z,95.70
2018-03-29T08:15:33.515Z,95.70
2018-03-29T08:18:01.881Z,95.50
2018-03-29T08:20:29.403Z,95.50
2018-03-29T08:22:56.952Z,95.40
2018-03-29T08:25:24.488Z,95.30
2018-03-29T08:27:52.778Z,95.30
2018-03-29T08:30:21.081Z,95.80
2018-03-29T08:32:48.616Z,95.80
2018-03-29T08:35:16.895Z,95.60
2018-03-29T08:37:45.198Z,95.60
2018-03-29T08:40:12.730Z,95.60
2018-03-29T08:42:40.241Z,95.70
2018-03-29T08:45:07.799Z,95.70
2018-03-29T08:47:35.332Z,94.80
2018-03-29T08:50:02.850Z,95.00
2018-03-29T08:52:31.187Z,95.40
2018-03-29T08:54:58.717Z,95.40
2018-03-29T08:57:26.222Z,95.20
2018-03-29T08:59:53.763Z,95.60
2018-03-29T09:02:22.068Z,95.00
2018-03-29T09:04:50.298Z,94.70
2018-03-29T09:07:17.844Z,94.80
2018-03-29T09:09:45.391Z,94.50
2018-03-29T09:12:12.908Z,95.30
2018-03-29T09:14:40.442Z,94.60
2018-03-29T09:17:07.979Z,94.10
2018-03-29T09:19:35.496Z,93.90
2018-03-29T09:22:03.047Z,93.70
2018-03-29T09:24:30.568Z,94.50
2018-03-29T09:26:58.084Z,95.30
2018-03-29T09:29:26.404Z,95.30
2018-03-29T09:31:54.689Z,94.40
2018-03-29T09:34:22.237Z,94.40
2018-03-29T09:36:49.788Z,94.50
2018-03-29T09:39:18.081Z,94.50
2018-03-29T09:41:45.625Z,94.50
2018-03-29T09:44:13.181Z,93.10
2018-03-29T09:46:40.708Z,92.70
2018-03-29T09:49:09.000Z,94.10
2018-03-29T09:51:36.572Z,94.10
2018-03-29T09:54:04.100Z,94.10
2018-03-29T09:56:31.616Z,94.40
2018-03-29T09:58:59.163Z,94.30
2018-03-29T10:01:26.728Z,93.80
2018-03-29T10:04:00.008Z,93.80
2018-03-29T10:06:27.552Z,92.60
2018-03-29T10:08:55.836Z,93.40
2018-03-29T10:11:23.399Z,93.40
2018-03-29T10:13:50.938Z,92.80
2018-03-29T10:16:19.236Z,93.90
2018-03-29T10:18:46.795Z,93.90
2018-03-29T10:21:14.321Z,94.00
2018-03-29T10:23:42.620Z,93.40
2018-03-29T10:26:10.168Z,93.40
2018-03-29T10:28:37.714Z,93.10
2018-03-29T10:31:05.222Z,93.10
2018-03-29T10:33:32.789Z,93.80
2018-03-29T10:36:00.301Z,93.00
2018-03-29T10:38:28.571Z,92.40
2018-03-29T10:40:56.897Z,88.70
2018-03-29T10:43:24.428Z,88.70
2018-03-29T10:45:51.947Z,90.60
2018-03-29T10:48:19.497Z,90.30
2018-03-29T10:50:47.033Z,85.10
2018-03-29T10:53:14.545Z,82.50
2018-03-29T10:55:42.868Z,83.20
2018-03-29T10:58:10.402Z,83.30
2018-03-29T11:00:37.928Z,86.30
2018-03-29T11:03:05.470Z,86.30
2018-03-29T11:05:33.014Z,80.50
2018-03-29T11:08:00.539Z,81.80
2018-03-29T11:10:28.090Z,78.40
2018-03-29T11:12:55.600Z,83.50
2018-03-29T11:15:23.128Z,78.80
2018-03-29T11:17:50.676Z,81.50
2018-03-29T11:20:18.199Z,80.70
2018-03-29T11:22:45.719Z,80.80
2018-03-29T11:25:13.285Z,80.60
2018-03-29T11:27:40.827Z,73.60
2018-03-29T11:30:08.345Z,75.70
2018-03-29T11:32:36.669Z,73.40
2018-03-29T11:35:04.188Z,73.40
2018-03-29T11:37:32.491Z,75.30
2018-03-29T11:40:00.054Z,75.30
2018-03-29T11:42:27.604Z,75.00
2018-03-29T11:44:55.123Z,79.50
2018-03-29T11:47:22.689Z,78.40
2018-03-29T11:49:50.987Z,74.80
2018-03-29T11:52:18.528Z,74.70
2018-03-29T11:54:46.867Z,74.50
2018-03-29T11:57:14.412Z,74.50
2018-03-29T11:59:41.947Z,73.60
2018-03-29T12:02:09.520Z,69.90
2018-03-29T12:04:37.066Z,68.50
2018-03-29T12:07:04.595Z,66.20
2018-03-29T12:09:32.917Z,67.40
2018-03-29T12:12:00.436Z,67.40
2018-03-29T12:14:28.728Z,68.80
2018-03-29T12:16:56.299Z,68.80
2018-03-29T12:19:23.839Z,69.70
2018-03-29T12:21:52.115Z,68.70
2018-03-29T12:24:20.430Z,69.10
2018-03-29T12:26:47.949Z,69.10
2018-03-29T12:29:15.506Z,68.80
2018-03-29T12:31:43.815Z,68.20
2018-03-29T12:34:11.353Z,68.10
2018-03-29T12:36:39.636Z,66.20
2018-03-29T12:39:08.243Z,68.40
2018-03-29T12:41:35.771Z,68.40
2018-03-29T12:44:04.079Z,66.20
2018-03-29T12:46:31.626Z,66.20
2018-03-29T12:48:59.142Z,66.50
2018-03-29T12:51:26.667Z,69.10
2018-03-29T12:53:54.211Z,67.10
2018-03-29T12:56:21.769Z,64.80
2018-03-29T12:58:49.282Z,63.90
2018-03-29T13:01:16.824Z,66.00
2018-03-29T13:03:44.346Z,65.20
2018-03-29T13:06:11.867Z,64.60
2018-03-29T13:08:40.213Z,65.20
2018-03-29T13:11:07.737Z,65.10
2018-03-29T13:13:35.268Z,64.00
2018-03-29T13:16:03.572Z,67.20
2018-03-29T13:18:31.099Z,67.20
2018-03-29T13:20:59.686Z,68.50
2018-03-29T13:23:28.022Z,68.30
2018-03-29T13:25:55.572Z,68.30
2018-03-29T13:28:23.113Z,71.20
2018-03-29T13:30:50.751Z,70.60
2018-03-29T13:33:18.244Z,69.80
2018-03-29T13:35:45.788Z,69.30
2018-03-29T13:38:13.360Z,68.50
2018-03-29T13:40:40.904Z,68.20
2018-03-29T13:43:08.428Z,68.30
2018-03-29T13:45:38.002Z,68.40
2018-03-29T13:48:05.524Z,68.40
2018-03-29T13:50:33.060Z,69.20
2018-03-29T13:53:01.391Z,65.80
2018-03-29T13:55:28.919Z,65.80
2018-03-29T13:57:56.453Z,64.90
2018-03-29T14:00:24.792Z,64.00
2018-03-29T14:02:52.320Z,64.00
2018-03-29T14:05:19.865Z,63.10
2018-03-29T14:07:47.432Z,64.00
2018-03-29T14:10:14.971Z,64.90
2018-03-29T14:12:43.260Z,68.70
2018-03-29T14:15:11.561Z,69.40
2018-03-29T14:17:39.091Z,69.40
2018-03-29T14:20:07.387Z,71.30
2018-03-29T14:22:34.963Z,71.30
2018-03-29T14:25:02.482Z,70.90
2018-03-29T14:27:30.774Z,71.60
2018-03-29T14:29:58.362Z,71.60
2018-03-29T14:32:25.893Z,71.60
2018-03-29T14:34:53.425Z,70.50
2018-03-29T14:37:21.747Z,70.30
2018-03-29T14:39:49.420Z,70.20
2018-03-29T14:42:18.599Z,66.10
2018-03-29T14:44:46.202Z,66.10
2018-03-29T14:47:13.732Z,68.70
2018-03-29T14:49:41.285Z,73.30
2018-03-29T14:52:08.856Z,74.90
2018-03-29T14:54:36.390Z,79.70
2018-03-29T14:57:03.935Z,78.90
2018-03-29T14:59:32.267Z,79.30
2018-03-29T15:01:59.800Z,79.30
2018-03-29T15:04:27.337Z,81.20
2018-03-29T15:06:54.890Z,80.10
2018-03-29T15:09:22.433Z,78.20
2018-03-29T15:11:50.719Z,80.20
2018-03-29T15:14:19.036Z,78.10
2018-03-29T15:16:46.561Z,78.10
2018-03-29T15:19:14.098Z,79.20
2018-03-29T15:21:41.695Z,76.90
2018-03-29T15:24:09.214Z,77.00
2018-03-29T15:26:36.758Z,77.30
2018-03-29T15:29:04.365Z,76.70
2018-03-29T15:31:31.905Z,76.40
2018-03-29T15:34:00.215Z,74.80
2018-03-29T15:36:27.804Z,74.80
2018-03-29T15:38:55.326Z,78.90
2018-03-29T15:41:22.848Z,80.70
2018-03-29T15:43:51.183Z,78.60
2018-03-29T15:46:18.720Z,78.50
2018-03-29T15:48:46.256Z,75.10
2018-03-29T15:51:14.570Z,75.50
2018-03-29T15:53:42.101Z,75.40
2018-03-29T15:56:10.391Z,73.30
2018-03-29T15:58:37.950Z,73.30
2018-03-29T16:01:05.492Z,71.30
2018-03-29T16:03:33.775Z,71.60
2018-03-29T16:06:02.096Z,74.20
2018-03-29T16:08:29.611Z,74.20
2018-03-29T16:10:57.913Z,74.40
2018-03-29T16:13:25.461Z,74.30
2018-03-29T16:15:52.981Z,76.60
2018-03-29T16:18:20.510Z,77.80
2018-03-29T16:20:48.092Z,77.70
2018-03-29T16:23:15.625Z,80.10
2018-03-29T16:25:43.154Z,79.00
2018-03-29T16:28:10.711Z,77.80
2018-03-29T16:30:38.222Z,77.70
2018-03-29T16:33:05.743Z,77.40
2018-03-29T16:35:33.303Z,77.10
2018-03-29T16:38:00.830Z,77.30
2018-03-29T16:40:29.136Z,77.10
2018-03-29T16:42:56.684Z,77.10
2018-03-29T16:45:24.266Z,76.70
2018-03-29T16:47:51.855Z,76.30
2018-03-29T16:50:19.410Z,75.90
2018-03-29T16:52:47.721Z,77.00
2018-03-29T16:55:16.026Z,77.90
2018-03-29T16:57:43.574Z,77.90
2018-03-29T17:00:11.090Z,77.90
2018-03-29T17:02:38.609Z,78.20
2018-03-29T17:05:06.160Z,82.10
2018-03-29T17:07:33.700Z,81.00
2018-03-29T17:10:02.003Z,84.90
2018-03-29T17:12:29.545Z,84.90
2018-03-29T17:14:57.073Z,84.40
2018-03-29T17:17:24.595Z,84.70
2018-03-29T17:19:52.161Z,84.20
2018-03-29T17:22:19.679Z,84.90
2018-03-29T17:24:47.980Z,85.90
2018-03-29T17:27:15.531Z,85.90
2018-03-29T17:29:43.064Z,86.50
2018-03-29T17:32:11.363Z,86.40
2018-03-29T17:34:38.916Z,86.30
2018-03-29T17:37:06.441Z,85.70
2018-03-29T17:39:33.955Z,85.60
2018-03-29T17:42:01.512Z,85.30
2018-03-29T17:44:29.025Z,84.40
2018-03-29T17:46:56.555Z,85.10
2018-03-29T17:49:24.112Z,85.60
2018-03-29T17:51:51.834Z,85.50
2018-03-29T17:54:19.344Z,84.60
2018-03-29T17:56:46.897Z,84.70
2018-03-29T17:59:14.432Z,84.80
2018-03-29T18:01:41.992Z,84.80
2018-03-29T18:04:09.537Z,83.80
2018-03-29T18:06:37.067Z,84.20
2018-03-29T18:09:06.215Z,83.80
2018-03-29T18:11:33.754Z,83.60
2018-03-29T18:14:01.292Z,83.20
2018-03-29T18:16:29.593Z,84.20
2018-03-29T18:18:57.133Z,84.20
2018-03-29T18:21:24.654Z,86.20
2018-03-29T18:23:52.174Z,87.40
2018-03-29T18:26:19.700Z,88.50
2018-03-29T18:28:47.970Z,90.50
2018-03-29T18:31:16.271Z,89.90
2018-03-29T18:33:43.781Z,89.80
2018-03-29T18:36:11.303Z,88.90
2018-03-29T18:38:38.852Z,88.30
2018-03-29T18:41:06.387Z,87.00
2018-03-29T18:43:34.665Z,85.80
2018-03-29T18:46:03.101Z,85.20
2018-03-29T18:48:30.606Z,85.20
2018-03-29T18:50:59.548Z,84.10
2018-03-29T18:53:27.043Z,84.00
2018-03-29T18:55:55.360Z,83.30
2018-03-29T18:58:22.895Z,83.30
2018-03-29T19:00:51.194Z,83.60
2018-03-29T19:03:18.950Z,83.60
2018-03-29T19:05:46.498Z,83.90
2018-03-29T19:08:14.063Z,83.80
2018-03-29T19:10:41.592Z,83.70
2018-03-29T19:13:09.883Z,84.00
2018-03-29T19:15:38.200Z,83.20
2018-03-29T19:18:05.720Z,83.20
2018-03-29T19:20:34.019Z,84.20
2018-03-29T19:23:01.560Z,84.20
2018-03-29T19:25:29.851Z,84.40
2018-03-29T19:27:57.356Z,84.40
2018-03-29T19:30:24.899Z,84.50
2018-03-29T19:32:52.404Z,85.10
2018-03-29T19:35:20.711Z,85.80
2018-03-29T19:37:48.337Z,85.80
2018-03-29T19:40:15.897Z,86.20
2018-03-29T19:42:44.261Z,86.30
2018-03-29T19:45:11.806Z,86.30
2018-03-29T19:47:39.334Z,86.70
2018-03-29T19:50:06.854Z,86.80
2018-03-29T19:52:35.152Z,86.70
2018-03-29T19:55:02.688Z,86.60
2018-03-29T19:57:30.965Z,86.60
2018-03-29T19:59:59.275Z,86.70
2018-03-29T20:02:26.802Z,86.70
2018-03-29T20:04:55.077Z,86.70
2018-03-29T20:07:23.387Z,86.60
2018-03-29T20:09:50.905Z,86.60
2018-03-29T20:12:19.200Z,86.20
2018-03-29T20:14:47.515Z,86.40
2018-03-29T20:17:15.049Z,86.40
2018-03-29T20:19:42.576Z,87.10
2018-03-29T20:22:10.891Z,87.90
2018-03-29T20:24:38.418Z,87.80
2018-03-29T20:27:06.712Z,87.20
2018-03-29T20:29:35.010Z,86.80
2018-03-29T20:32:02.516Z,86.80
2018-03-29T20:34:30.030Z,86.20
2018-03-29T20:36:57.561Z,86.20
2018-03-29T20:39:25.857Z,85.90
2018-03-29T20:41:53.392Z,85.90
2018-03-29T20:44:21.736Z,85.80
2018-03-29T20:46:49.270Z,85.80
2018-03-29T20:49:16.821Z,85.90
2018-03-29T20:51:45.134Z,87.20
2018-03-29T20:54:12.657Z,87.20
2018-03-29T20:56:40.198Z,87.00
2018-03-29T20:59:07.756Z,88.10
2018-03-29T21:01:35.298Z,89.20
2018-03-29T21:04:03.575Z,90.00
2018-03-29T21:06:31.889Z,90.00
2018-03-29T21:08:59.416Z,90.00
2018-03-29T21:11:27.694Z,88.60
2018-03-29T21:13:55.996Z,87.50
2018-03-29T21:16:23.542Z,87.50
2018-03-29T21:18:51.049Z,87.90
2018-03-29T21:21:18.600Z,88.00
2018-03-29T21:23:46.120Z,88.00
2018-03-29T21:26:13.647Z,88.40
2018-03-29T21:28:41.205Z,88.70
2018-03-29T21:31:09.518Z,89.70
2018-03-29T21:33:37.053Z,89.60
2018-03-29T21:36:04.643Z,90.20
2018-03-29T21:38:32.163Z,90.60
2018-03-29T21:41:00.448Z,91.30
2018-03-29T21:43:28.753Z,91.40
2018-03-29T21:45:56.273Z,91.40
2018-03-29T21:48:24.558Z,92.30
2018-03-29T21:50:52.870Z,91.90
2018-03-29T21:53:20.414Z,91.90
2018-03-29T21:55:47.945Z,92.30
2018-03-29T21:58:16.274Z,92.60
2018-03-29T22:00:43.785Z,92.60
2018-03-29T22:03:12.072Z,93.00
2018-03-29T22:05:40.386Z,93.40
2018-03-29T22:08:07.906Z,93.40
2018-03-29T22:10:36.222Z,93.30
2018-03-29T22:13:03.773Z,93.30
2018-03-29T22:15:31.307Z,93.60
2018-03-29T22:17:59.606Z,94.40
2018-03-29T22:20:27.171Z,94.40
2018-03-29T22:22:54.691Z,94.00
2018-03-29T22:25:22.985Z,93.20
2018-03-29T22:27:50.548Z,93.20
2018-03-29T22:30:18.066Z,92.80
2018-03-29T22:32:45.588Z,92.90
2018-03-29T22:35:13.134Z,92.70
2018-03-29T22:37:40.641Z,92.70
2018-03-29T22:40:08.146Z,92.70
2018-03-29T22:42:35.681Z,92.80
2018-03-29T22:45:03.207Z,92.90
2018-03-29T22:47:30.723Z,92.70
2018-03-29T22:49:58.297Z,92.80
2018-03-29T22:52:25.827Z,92.90
2018-03-29T22:54:53.346Z,93.00
2018-03-29T22:57:20.890Z,93.00
2018-03-29T22:59:48.404Z,93.30
2018-03-29T23:02:15.923Z,93.30
2018-03-29T23:04:43.465Z,93.30
2018-03-29T23:07:10.985Z,93.70
2018-03-29T23:09:38.507Z,93.80
2018-03-29T23:12:06.058Z,93.50
2018-03-29T23:14:33.576Z,93.40
2018-03-29T23:17:01.103Z,93.30
2018-03-29T23:19:29.405Z,93.50
2018-03-29T23:21:56.932Z,93.50
2018-03-29T23:24:25.248Z,93.60
2018-03-29T23:26:52.820Z,93.60
2018-03-29T23:29:20.339Z,93.80
2018-03-29T23:31:48.615Z,94.30
2018-03-29T23:34:16.941Z,94.30
2018-03-29T23:36:44.469Z,94.30
2018-03-29T23:39:12.003Z,94.20
2018-03-29T23:41:40.334Z,94.60
2018-03-29T23:44:07.850Z,94.30
2018-03-29T23:46:35.386Z,94.40
2018-03-29T23:49:02.953Z,94.40
2018-03-29T23:51:31.229Z,94.40
2018-03-29T23:53:59.515Z,94.60
2018-03-29T23:56:27.834Z,94.70
2018-03-29T23:58:55.340Z,94.80
